createdAt,value
2022-12-27T00:00:01.093Z,4.6
2022-12-27T00:03:01.123Z,4.6
2022-12-27T00:06:01.049Z,4.6
2022-12-27T00:09:01.051Z,4.6
2022-12-27T00:12:01.047Z,4.2
2022-12-27T00:15:00.972Z,4.2
2022-12-27T00:18:01.021Z,4.2
2022-12-27T00:21:01.090Z,4.2
2022-12-27T00:24:01.131Z,4.2
2022-12-27T00:27:01.072Z,4.2
2022-12-27T00:30:01.023Z,4.2
2022-12-27T00:33:01.145Z,4.2
2022-12-27T00:36:01.066Z,4.2
2022-12-27T00:39:01.015Z,4.2
2022-12-27T00:42:01.070Z,4.2
2022-12-27T00:45:01.040Z,4.2
2022-12-27T00:48:01.024Z,4.2
2022-12-27T00:51:01.071Z,4.2
2022-12-27T00:54:00.968Z,4.2
2022-12-27T00:57:01.042Z,4.2
2022-12-27T01:00:10.263Z,4.2
2022-12-27T01:03:01.027Z,4.2
2022-12-27T01:06:01.061Z,4
2022-12-27T01:09:01.075Z,4
2022-12-27T01:12:01.119Z,4
2022-12-27T01:15:01.073Z,4
2022-12-27T01:18:01.092Z,4
2022-12-27T01:21:01.059Z,4
2022-12-27T01:24:01.012Z,4
2022-12-27T01:27:01.222Z,4
2022-12-27T01:30:01.114Z,4
2022-12-27T01:33:01.071Z,4
2022-12-27T01:36:01.054Z,4
2022-12-27T01:39:01.069Z,4
2022-12-27T01:42:01.196Z,4
2022-12-27T01:45:00.986Z,3.8
2022-12-27T01:48:01.093Z,3.8
2022-12-27T01:51:01.075Z,3.8
2022-12-27T01:54:01.101Z,3.8
2022-12-27T01:57:01.157Z,3.8
2022-12-27T02:00:01.093Z,3.8
2022-12-27T02:03:01.071Z,3.9
2022-12-27T02:06:01.064Z,3.9
2022-12-27T02:09:01.006Z,3.9
2022-12-27T02:12:01.082Z,3.9
2022-12-27T02:15:01.004Z,3.9
2022-12-27T02:18:01.052Z,3.9
2022-12-27T02:21:01.073Z,3.9
2022-12-27T02:24:01.059Z,3.9
2022-12-27T02:27:01.032Z,3.9
2022-12-27T02:30:01.018Z,3.9
2022-12-27T02:33:01.662Z,3.9
2022-12-27T02:36:01.020Z,3.9
2022-12-27T02:39:01.098Z,3.9
2022-12-27T02:42:01.009Z,3.9
2022-12-27T02:45:01.032Z,3.9
2022-12-27T02:48:01.055Z,3.9
2022-12-27T02:51:01.166Z,3.9
2022-12-27T02:54:01.151Z,3.9
2022-12-27T02:57:01.094Z,3.9
2022-12-27T03:00:01.138Z,3.9
2022-12-27T03:03:01.116Z,3.9
2022-12-27T03:06:01.035Z,3.6
2022-12-27T03:09:01.151Z,3.6
2022-12-27T03:12:01.356Z,3.6
2022-12-27T03:15:01.257Z,3.6
2022-12-27T03:18:01.088Z,3.6
2022-12-27T03:21:01.126Z,3.6
2022-12-27T03:24:01.015Z,3.6
2022-12-27T03:27:01.051Z,3.6
2022-12-27T03:30:01.042Z,3.6
2022-12-27T03:33:01.058Z,3.6
2022-12-27T03:36:01.001Z,3.6
2022-12-27T03:39:01.057Z,3.6
2022-12-27T03:42:01.043Z,3.6
2022-12-27T03:45:01.108Z,3.6
2022-12-27T03:48:01.023Z,3.6
2022-12-27T03:51:01.114Z,3.6
2022-12-27T03:54:01.105Z,3.6
2022-12-27T03:57:01.046Z,3.6
2022-12-27T04:00:01.156Z,3.5
2022-12-27T04:03:01.311Z,3.5
2022-12-27T04:06:01.092Z,3.5
2022-12-27T04:09:01.081Z,3.5
2022-12-27T04:12:01.041Z,3.5
2022-12-27T04:15:01.056Z,3.5
2022-12-27T04:18:01.083Z,3.5
2022-12-27T04:21:00.997Z,3.5
2022-12-27T04:24:01.038Z,3.5
2022-12-27T04:27:01.048Z,3.5
2022-12-27T04:30:01.347Z,3.5
2022-12-27T04:33:01.107Z,3.5
2022-12-27T04:36:06.636Z,3.5
2022-12-27T04:39:01.063Z,3.5
2022-12-27T04:42:01.119Z,3.5
2022-12-27T04:45:00.975Z,3.5
2022-12-27T04:48:01.021Z,3.5
2022-12-27T04:51:01.035Z,3.4
2022-12-27T04:54:01.048Z,3.4
2022-12-27T04:57:01.009Z,3.4
2022-12-27T05:00:01.180Z,3.4
2022-12-27T05:03:01.292Z,3.4
2022-12-27T05:06:01.061Z,3.4
2022-12-27T05:09:01.057Z,3.4
2022-12-27T05:12:01.017Z,3.4
2022-12-27T05:15:00.995Z,3.4
2022-12-27T05:18:00.992Z,3.4
2022-12-27T05:21:01.092Z,3.4
2022-12-27T05:24:06.009Z,3.4
2022-12-27T05:27:01.061Z,3.4
2022-12-27T05:30:00.994Z,3.4
2022-12-27T05:33:01.102Z,3.4
2022-12-27T05:36:00.997Z,3.4
2022-12-27T05:39:01.139Z,3.4
2022-12-27T05:51:01.596Z,3.7
2022-12-27T05:54:01.144Z,3.8
2022-12-27T05:57:01.217Z,3.8
2022-12-27T06:00:01.187Z,3.8
2022-12-27T06:03:01.435Z,3.8
2022-12-27T06:06:01.219Z,3.8
2022-12-27T06:09:01.231Z,3.8
2022-12-27T06:12:01.123Z,3.8
2022-12-27T06:15:01.194Z,4
2022-12-27T06:18:01.269Z,4
2022-12-27T06:21:01.136Z,4
2022-12-27T06:24:01.200Z,4
2022-12-27T06:27:01.225Z,4
2022-12-27T06:30:01.152Z,4
2022-12-27T06:33:01.153Z,4
2022-12-27T06:36:01.194Z,4
2022-12-27T06:39:01.096Z,4
2022-12-27T06:42:01.162Z,4.3
2022-12-27T06:45:01.290Z,4.3
2022-12-27T06:48:01.179Z,4.3
2022-12-27T06:51:01.139Z,4.3
2022-12-27T06:54:01.165Z,4.5
2022-12-27T06:57:01.228Z,4.5
2022-12-27T07:00:01.181Z,4.5
2022-12-27T07:03:01.233Z,4.5
2022-12-27T07:06:01.197Z,4.5
2022-12-27T07:09:01.162Z,4.5
2022-12-27T07:12:01.145Z,4.5
2022-12-27T07:15:01.194Z,4.5
2022-12-27T07:18:01.124Z,4.5
2022-12-27T07:21:01.194Z,4.7
2022-12-27T07:24:01.218Z,4.7
2022-12-27T07:27:01.282Z,4.7
2022-12-27T07:30:01.352Z,4.7
2022-12-27T07:33:01.303Z,4.8
2022-12-27T07:36:01.210Z,4.8
2022-12-27T07:39:01.176Z,4.8
2022-12-27T07:42:08.465Z,4.8
2022-12-27T07:45:01.293Z,4.9
2022-12-27T07:48:01.176Z,4.9
2022-12-27T07:51:01.315Z,4.9
2022-12-27T07:54:01.210Z,4.9
2022-12-27T07:57:01.231Z,4.9
2022-12-27T08:00:01.304Z,4.9
2022-12-27T08:03:01.272Z,5
2022-12-27T08:06:01.215Z,5
2022-12-27T08:09:01.248Z,5
2022-12-27T08:12:01.203Z,5
2022-12-27T08:15:01.391Z,5
2022-12-27T08:18:01.251Z,5
2022-12-27T08:21:01.254Z,5
2022-12-27T08:24:01.304Z,5.2
2022-12-27T08:27:01.250Z,5.2
2022-12-27T08:30:01.189Z,5.1
2022-12-27T08:33:01.217Z,5.1
2022-12-27T08:36:22.270Z,5.1
2022-12-27T08:39:01.248Z,5.1
2022-12-27T08:42:01.179Z,5.1
2022-12-27T08:45:01.222Z,5.3
2022-12-27T08:48:01.337Z,5.3
2022-12-27T08:51:01.189Z,5.3
2022-12-27T08:54:01.162Z,5.3
2022-12-27T08:57:01.256Z,5.3
2022-12-27T09:00:01.353Z,5.3
2022-12-27T09:03:01.413Z,5.3
2022-12-27T09:06:01.268Z,5.3
2022-12-27T09:09:01.383Z,5.3
2022-12-27T09:12:08.062Z,5.3
2022-12-27T09:15:01.170Z,5.3
2022-12-27T09:18:01.236Z,5.5
2022-12-27T09:21:01.277Z,5.5
2022-12-27T09:24:01.216Z,5.5
2022-12-27T09:27:01.238Z,5.5
2022-12-27T09:30:01.394Z,5.5
2022-12-27T09:33:01.265Z,5.5
2022-12-27T09:36:01.212Z,5.5
2022-12-27T09:39:01.248Z,5.5
2022-12-27T09:45:01.364Z,5.5
2022-12-27T09:48:01.302Z,5.5
2022-12-27T09:51:01.240Z,5.5
2022-12-27T09:54:01.271Z,5.5
2022-12-27T09:57:20.365Z,5.5
2022-12-27T10:00:01.321Z,5.5
2022-12-27T10:03:01.412Z,5.5
2022-12-27T10:06:01.312Z,5.5
2022-12-27T10:09:01.167Z,5.5
2022-12-27T10:12:01.269Z,5.5
2022-12-27T10:15:01.163Z,5.5
2022-12-27T10:18:01.218Z,5.5
2022-12-27T10:21:01.228Z,5.5
2022-12-27T10:24:01.235Z,5.5
2022-12-27T10:27:01.202Z,5.8
2022-12-27T10:30:01.289Z,5.8
2022-12-27T10:33:01.292Z,5.8
2022-12-27T10:36:01.273Z,5.8
2022-12-27T10:39:01.304Z,5.8
2022-12-27T10:42:01.184Z,5.8
2022-12-27T10:45:01.458Z,5.8
2022-12-27T10:48:01.204Z,5.8
2022-12-27T10:51:01.307Z,5.8
2022-12-27T10:54:01.257Z,5.8
2022-12-27T10:57:01.228Z,5.8
2022-12-27T11:00:01.293Z,5.8
2022-12-27T11:03:01.443Z,5.8
2022-12-27T11:06:01.235Z,5.8
2022-12-27T11:09:01.595Z,5.8
2022-12-27T11:12:01.212Z,5.8
2022-12-27T11:15:01.203Z,5.8
2022-12-27T11:18:01.337Z,5.8
2022-12-27T11:21:01.287Z,6.1
2022-12-27T11:24:01.192Z,6.1
2022-12-27T11:27:01.293Z,6.1
2022-12-27T11:30:01.257Z,6.1
2022-12-27T11:33:01.297Z,6.1
2022-12-27T11:36:01.244Z,6.1
2022-12-27T11:39:01.263Z,6.1
2022-12-27T11:42:01.251Z,6.1
2022-12-27T11:45:01.220Z,6.1
2022-12-27T11:48:01.172Z,6.3
2022-12-27T11:51:01.137Z,6.3
2022-12-27T11:54:01.242Z,6.3
2022-12-27T11:57:01.231Z,6.3
2022-12-27T12:00:01.331Z,6.3
2022-12-27T12:03:01.324Z,6.3
2022-12-27T12:06:01.313Z,6.3
2022-12-27T12:09:01.256Z,6.3
2022-12-27T12:12:01.379Z,6.3
2022-12-27T12:15:01.221Z,6.3
2022-12-27T12:18:01.354Z,6.3
2022-12-27T12:21:01.278Z,6.3
2022-12-27T12:24:01.337Z,6.6
2022-12-27T12:27:01.160Z,6.6
2022-12-27T12:30:01.379Z,6.6
2022-12-27T12:33:01.453Z,6.6
2022-12-27T12:36:01.329Z,6.6
2022-12-27T12:39:01.221Z,6.6
2022-12-27T12:42:01.331Z,6.6
2022-12-27T12:45:01.351Z,6.6
2022-12-27T12:48:01.405Z,6.6
2022-12-27T12:51:01.190Z,6.6
2022-12-27T12:54:01.205Z,6.6
2022-12-27T13:00:01.557Z,6.6
2022-12-27T13:03:01.561Z,6.6
2022-12-27T13:06:01.356Z,6.6
2022-12-27T13:09:01.345Z,6.6
2022-12-27T13:12:01.438Z,6.6
2022-12-27T13:15:01.475Z,6.4
2022-12-27T13:18:01.352Z,6.4
2022-12-27T13:21:01.443Z,6.4
2022-12-27T13:24:01.340Z,6.4
2022-12-27T13:27:01.370Z,6.4
2022-12-27T13:30:07.556Z,6.4
2022-12-27T13:33:01.324Z,6.4
2022-12-27T13:36:01.355Z,6.4
2022-12-27T13:39:01.330Z,6.4
2022-12-27T13:42:01.386Z,6.4
2022-12-27T13:45:01.435Z,6.4
2022-12-27T13:48:01.349Z,6.4
2022-12-27T13:51:01.338Z,6.4
2022-12-27T13:54:01.393Z,6.4
2022-12-27T13:57:01.343Z,6.3
2022-12-27T14:03:01.508Z,6.3
2022-12-27T14:06:01.250Z,6.3
2022-12-27T14:09:01.435Z,6.3
2022-12-27T14:12:01.346Z,6.3
2022-12-27T14:18:01.373Z,6.3
2022-12-27T14:21:01.387Z,6.2
2022-12-27T14:24:01.299Z,6.2
2022-12-27T14:27:01.452Z,6.2
2022-12-27T14:30:01.489Z,6.2
2022-12-27T14:33:01.425Z,6.2
2022-12-27T14:36:01.411Z,6.2
2022-12-27T14:39:01.314Z,6.2
2022-12-27T14:42:01.446Z,6.2
2022-12-27T14:45:01.300Z,6.2
2022-12-27T14:48:01.255Z,6.2
2022-12-27T14:51:01.242Z,6.2
2022-12-27T14:54:01.298Z,6.2
2022-12-27T14:57:01.330Z,6.2
2022-12-27T15:00:01.409Z,6.2
2022-12-27T15:03:01.648Z,6.2
2022-12-27T15:06:01.448Z,6.2
2022-12-27T15:09:07.636Z,5.8
2022-12-27T15:12:01.413Z,5.8
2022-12-27T15:15:01.250Z,5.8
2022-12-27T15:18:01.337Z,5.8
2022-12-27T15:21:01.218Z,5.6
2022-12-27T15:24:01.347Z,5.6
2022-12-27T15:27:01.287Z,5.6
2022-12-27T15:30:01.431Z,5.6
2022-12-27T15:33:01.258Z,5.6
2022-12-27T15:36:01.262Z,5.6
2022-12-27T15:39:01.236Z,5.6
2022-12-27T15:42:01.271Z,5.6
2022-12-27T15:45:01.352Z,5.6
2022-12-27T15:48:01.233Z,5.6
2022-12-27T15:51:01.249Z,5.6
2022-12-27T15:54:01.263Z,5.6
2022-12-27T16:00:01.445Z,5.3
2022-12-27T16:03:01.678Z,5.2
2022-12-27T16:06:01.133Z,5.2
2022-12-27T16:09:01.115Z,5.2
2022-12-27T16:12:01.205Z,5.2
2022-12-27T16:15:01.133Z,5.2
2022-12-27T16:18:01.163Z,5.2
2022-12-27T16:21:01.127Z,5.2
2022-12-27T16:24:01.166Z,5.2
2022-12-27T16:27:01.166Z,5.2
2022-12-27T16:30:01.185Z,5.2
2022-12-27T16:33:01.154Z,5.2
2022-12-27T16:36:01.384Z,5.2
2022-12-27T16:39:01.126Z,5.2
2022-12-27T16:42:01.221Z,5.2
2022-12-27T16:45:01.163Z,5.2
2022-12-27T16:48:01.136Z,5.2
2022-12-27T16:51:01.142Z,5.2
2022-12-27T16:54:01.139Z,5.2
2022-12-27T16:57:01.101Z,4.9
2022-12-27T17:00:01.130Z,4.9
2022-12-27T17:03:01.119Z,4.9
2022-12-27T17:09:01.260Z,4.9
2022-12-27T17:12:01.252Z,4.9
2022-12-27T17:15:01.324Z,4.9
2022-12-27T17:30:01.746Z,4.9
2022-12-27T17:33:01.142Z,4.9
2022-12-27T17:36:01.317Z,4.9
2022-12-27T17:39:01.878Z,4.9
2022-12-27T17:42:01.482Z,4.9
2022-12-27T17:45:01.225Z,4.9
2022-12-27T17:48:02.084Z,4.9
2022-12-27T17:51:00.838Z,4.9
2022-12-27T17:54:00.913Z,4.9
2022-12-27T17:57:00.814Z,4.9
2022-12-27T18:00:00.934Z,4.9
2022-12-27T18:03:00.929Z,4.9
2022-12-27T18:06:00.816Z,4.9
2022-12-27T18:09:00.826Z,4.9
2022-12-27T18:12:00.884Z,4.9
2022-12-27T18:15:00.846Z,4.9
2022-12-27T18:18:00.824Z,4.9
2022-12-27T18:21:01.035Z,4.9
2022-12-27T18:24:00.897Z,5.1
2022-12-27T18:27:00.844Z,5.1
2022-12-27T18:30:01.647Z,5.1
2022-12-27T18:33:00.896Z,5.1
2022-12-27T18:36:00.888Z,5.1
2022-12-27T18:39:00.843Z,5.1
2022-12-27T18:42:00.826Z,5.2
2022-12-27T18:45:00.885Z,5.2
2022-12-27T18:48:00.885Z,5.2
2022-12-27T18:51:00.812Z,5.2
2022-12-27T18:54:00.835Z,5.2
2022-12-27T18:57:00.828Z,5.2
2022-12-27T19:00:00.914Z,5.2
2022-12-27T19:03:00.954Z,5.3
2022-12-27T19:06:00.843Z,5.3
2022-12-27T19:09:00.827Z,5.3
2022-12-27T19:12:00.914Z,5.3
2022-12-27T19:15:00.824Z,5.3
2022-12-27T19:18:00.841Z,5.3
2022-12-27T19:21:00.819Z,5.3
2022-12-27T19:24:00.833Z,5.3
2022-12-27T19:27:00.816Z,5.4
2022-12-27T19:30:00.841Z,5.4
2022-12-27T19:33:00.809Z,5.4
2022-12-27T19:36:00.870Z,5.5
2022-12-27T19:39:00.905Z,5.5
2022-12-27T19:42:01.757Z,5.6
2022-12-27T19:45:00.808Z,5.6
2022-12-27T19:48:00.835Z,5.6
2022-12-27T19:51:00.823Z,5.6
2022-12-27T19:54:00.841Z,5.6
2022-12-27T19:57:00.815Z,5.6
2022-12-27T20:00:10.411Z,5.6
2022-12-27T20:03:01.025Z,5.6
2022-12-27T20:06:16.057Z,5.6
2022-12-27T20:09:00.825Z,5.6
2022-12-27T20:12:00.885Z,5.8
2022-12-27T20:15:00.821Z,5.8
2022-12-27T20:18:00.874Z,5.8
2022-12-27T20:21:00.830Z,5.8
2022-12-27T20:24:00.837Z,5.8
2022-12-27T20:27:00.849Z,5.9
2022-12-27T20:30:00.853Z,5.9
2022-12-27T20:33:00.846Z,5.9
2022-12-27T20:36:00.865Z,5.9
2022-12-27T20:39:00.783Z,5.9
2022-12-27T20:42:00.827Z,5.9
2022-12-27T20:45:00.769Z,5.9
2022-12-27T20:48:00.852Z,5.9
2022-12-27T20:51:00.830Z,5.9
2022-12-27T20:54:00.876Z,5.9
2022-12-27T20:57:00.850Z,5.9
2022-12-27T21:00:00.838Z,5.9
2022-12-27T21:03:00.976Z,5.9
2022-12-27T21:06:00.834Z,5.9
2022-12-27T21:09:00.922Z,5.9
2022-12-27T21:12:00.794Z,5.9
2022-12-27T21:15:00.844Z,5.9
2022-12-27T21:18:00.828Z,5.9
2022-12-27T21:21:00.830Z,6
2022-12-27T21:24:00.853Z,6
2022-12-27T21:27:00.834Z,6
2022-12-27T21:30:00.998Z,6
2022-12-27T21:33:00.807Z,6
2022-12-27T21:36:00.831Z,6
2022-12-27T21:39:00.835Z,6
2022-12-27T21:42:00.811Z,6
2022-12-27T21:45:00.930Z,6
2022-12-27T21:48:00.809Z,6
2022-12-27T21:51:00.856Z,6
2022-12-27T21:54:00.881Z,6
2022-12-27T21:57:00.773Z,6
2022-12-27T22:00:00.884Z,6
2022-12-27T22:03:01.295Z,6
2022-12-27T22:06:00.820Z,6
2022-12-27T22:09:00.949Z,6
2022-12-27T22:12:00.827Z,6
2022-12-27T22:15:00.782Z,6
2022-12-27T22:18:00.834Z,5.8
2022-12-27T22:21:00.857Z,5.8
2022-12-27T22:24:00.817Z,5.8
2022-12-27T22:27:00.833Z,5.8
2022-12-27T22:30:00.839Z,5.8
2022-12-27T22:33:00.842Z,5.8
2022-12-27T22:36:00.785Z,5.8
2022-12-27T22:39:00.853Z,5.8
2022-12-27T22:42:00.786Z,5.8
2022-12-27T22:45:00.802Z,5.8
2022-12-27T22:48:00.856Z,5.8
2022-12-27T22:51:00.817Z,5.7
2022-12-27T22:54:00.879Z,5.7
2022-12-27T22:57:00.809Z,5.7
2022-12-27T23:00:01.387Z,5.7
2022-12-27T23:03:00.834Z,5.7
2022-12-27T23:06:00.997Z,5.7
2022-12-27T23:09:00.865Z,5.7
2022-12-27T23:12:00.846Z,5.7
2022-12-27T23:15:00.880Z,5.4
2022-12-27T23:18:00.868Z,5.3
2022-12-27T23:21:24.099Z,5.3
2022-12-27T23:24:00.855Z,5.3
2022-12-27T23:27:00.822Z,5.3
2022-12-27T23:30:00.976Z,5.3
2022-12-27T23:33:00.806Z,5.3
2022-12-27T23:36:00.885Z,5.3
2022-12-27T23:39:00.806Z,5.3
2022-12-27T23:42:00.845Z,5.3
2022-12-27T23:45:00.797Z,5.1
2022-12-27T23:48:00.847Z,5.1
2022-12-27T23:51:00.833Z,5.1
2022-12-27T23:54:00.839Z,5.1
2022-12-27T23:57:22.979Z,5.1
